sensor_id;sensor_type;location;lat;lon;timestamp;P1;durP1;ratioP1;P2;durP2;ratioP2
38224;SDS011;24025;48.138;11.428;2022-12-20T00:00:26;24.05;;;12.13;;
38224;SDS011;24025;48.138;11.428;2022-12-20T00:02:56;25.23;;;10.93;;
38224;SDS011;24025;48.138;11.428;2022-12-20T00:05:27;22.05;;;11.77;;
38224;SDS011;24025;48.138;11.428;2022-12-20T00:07:57;19.85;;;10.45;;
38224;SDS011;24025;48.138;11.428;2022-12-20T00:10:28;22.95;;;10.95;;
38224;SDS011;24025;48.138;11.428;2022-12-20T00:12:58;21.17;;;10.75;;
38224;SDS011;24025;48.138;11.428;2022-12-20T00:15:29;21.00;;;11.20;;
38224;SDS011;24025;48.138;11.428;2022-12-20T00:18:00;22.60;;;10.50;;
38224;SDS011;24025;48.138;11.428;2022-12-20T00:20:31;16.50;;;9.27;;
38224;SDS011;24025;48.138;11.428;2022-12-20T00:23:01;20.27;;;9.90;;
38224;SDS011;24025;48.138;11.428;2022-12-20T00:25:32;19.70;;;10.43;;
38224;SDS011;24025;48.138;11.428;2022-12-20T00:28:02;24.00;;;11.13;;
38224;SDS011;24025;48.138;11.428;2022-12-20T00:30:34;29.75;;;14.15;;
38224;SDS011;24025;48.138;11.428;2022-12-20T00:33:04;33.03;;;15.60;;
38224;SDS011;24025;48.138;11.428;2022-12-20T00:35:35;37.05;;;15.80;;
38224;SDS011;24025;48.138;11.428;2022-12-20T00:38:10;27.48;;;14.55;;
38224;SDS011;24025;48.138;11.428;2022-12-20T00:40:41;32.08;;;14.25;;
38224;SDS011;24025;48.138;11.428;2022-12-20T00:43:11;27.10;;;12.80;;
38224;SDS011;24025;48.138;11.428;2022-12-20T00:45:41;28.48;;;13.93;;
38224;SDS011;24025;48.138;11.428;2022-12-20T00:48:12;27.23;;;13.30;;
38224;SDS011;24025;48.138;11.428;2022-12-20T00:50:42;25.63;;;12.88;;
38224;SDS011;24025;48.138;11.428;2022-12-20T00:53:13;20.40;;;12.32;;
38224;SDS011;24025;48.138;11.428;2022-12-20T00:55:44;21.10;;;11.32;;
38224;SDS011;24025;48.138;11.428;2022-12-20T00:58:15;18.77;;;10.05;;
38224;SDS011;24025;48.138;11.428;2022-12-20T01:00:46;17.35;;;10.13;;
38224;SDS011;24025;48.138;11.428;2022-12-20T01:03:16;15.55;;;9.48;;
38224;SDS011;24025;48.138;11.428;2022-12-20T01:05:51;12.60;;;8.25;;
38224;SDS011;24025;48.138;11.428;2022-12-20T01:08:31;15.23;;;8.25;;
38224;SDS011;24025;48.138;11.428;2022-12-20T01:11:03;15.20;;;7.25;;
38224;SDS011;24025;48.138;11.428;2022-12-20T01:13:35;14.38;;;8.75;;
38224;SDS011;24025;48.138;11.428;2022-12-20T01:16:08;13.68;;;7.90;;
38224;SDS011;24025;48.138;11.428;2022-12-20T01:18:41;13.45;;;7.90;;
38224;SDS011;24025;48.138;11.428;2022-12-20T01:21:12;12.55;;;7.15;;
38224;SDS011;24025;48.138;11.428;2022-12-20T01:23:44;11.88;;;6.82;;
38224;SDS011;24025;48.138;11.428;2022-12-20T01:26:16;13.45;;;7.50;;
38224;SDS011;24025;48.138;11.428;2022-12-20T01:28:50;12.13;;;6.88;;
38224;SDS011;24025;48.138;11.428;2022-12-20T01:31:23;13.82;;;7.20;;
38224;SDS011;24025;48.138;11.428;2022-12-20T01:33:53;14.70;;;7.35;;
38224;SDS011;24025;48.138;11.428;2022-12-20T01:36:25;11.63;;;7.15;;
38224;SDS011;24025;48.138;11.428;2022-12-20T01:39:01;15.40;;;7.95;;
38224;SDS011;24025;48.138;11.428;2022-12-20T01:41:42;10.75;;;6.72;;
38224;SDS011;24025;48.138;11.428;2022-12-20T01:46:47;14.68;;;8.18;;
38224;SDS011;24025;48.138;11.428;2022-12-20T01:49:20;10.57;;;6.05;;
38224;SDS011;24025;48.138;11.428;2022-12-20T01:51:59;9.93;;;5.95;;
38224;SDS011;24025;48.138;11.428;2022-12-20T01:54:45;12.57;;;6.53;;
38224;SDS011;24025;48.138;11.428;2022-12-20T01:57:33;8.80;;;5.32;;
38224;SDS011;24025;48.138;11.428;2022-12-20T02:00:14;12.02;;;5.50;;
38224;SDS011;24025;48.138;11.428;2022-12-20T02:02:46;10.55;;;5.70;;
38224;SDS011;24025;48.138;11.428;2022-12-20T02:05:18;6.80;;;5.20;;
38224;SDS011;24025;48.138;11.428;2022-12-20T02:07:52;8.20;;;4.90;;
38224;SDS011;24025;48.138;11.428;2022-12-20T02:10:26;8.13;;;5.00;;
38224;SDS011;24025;48.138;11.428;2022-12-20T02:13:11;9.20;;;4.38;;
38224;SDS011;24025;48.138;11.428;2022-12-20T02:15:58;5.65;;;4.07;;
38224;SDS011;24025;48.138;11.428;2022-12-20T02:18:34;6.85;;;4.15;;
38224;SDS011;24025;48.138;11.428;2022-12-20T02:27:48;7.03;;;4.13;;
38224;SDS011;24025;48.138;11.428;2022-12-20T02:30:26;8.23;;;4.25;;
38224;SDS011;24025;48.138;11.428;2022-12-20T02:33:09;10.13;;;3.80;;
38224;SDS011;24025;48.138;11.428;2022-12-20T02:35:42;5.85;;;3.25;;
38224;SDS011;24025;48.138;11.428;2022-12-20T02:38:29;6.43;;;4.00;;
38224;SDS011;24025;48.138;11.428;2022-12-20T02:41:06;5.30;;;3.25;;
38224;SDS011;24025;48.138;11.428;2022-12-20T02:43:42;6.93;;;3.60;;
38224;SDS011;24025;48.138;11.428;2022-12-20T02:46:33;9.05;;;3.55;;
38224;SDS011;24025;48.138;11.428;2022-12-20T02:51:40;8.25;;;3.65;;
38224;SDS011;24025;48.138;11.428;2022-12-20T02:54:13;9.23;;;3.42;;
38224;SDS011;24025;48.138;11.428;2022-12-20T02:56:55;7.63;;;3.40;;
38224;SDS011;24025;48.138;11.428;2022-12-20T03:00:32;5.07;;;3.40;;
38224;SDS011;24025;48.138;11.428;2022-12-20T03:02:42;4.53;;;2.85;;
38224;SDS011;24025;48.138;11.428;2022-12-20T03:05:33;4.85;;;2.85;;
38224;SDS011;24025;48.138;11.428;2022-12-20T03:08:08;4.50;;;2.88;;
38224;SDS011;24025;48.138;11.428;2022-12-20T03:10:39;6.10;;;3.75;;
38224;SDS011;24025;48.138;11.428;2022-12-20T03:13:09;4.95;;;3.35;;
38224;SDS011;24025;48.138;11.428;2022-12-20T03:15:39;6.80;;;3.47;;
38224;SDS011;24025;48.138;11.428;2022-12-20T03:18:10;5.97;;;3.53;;
38224;SDS011;24025;48.138;11.428;2022-12-20T03:20:41;4.40;;;2.90;;
38224;SDS011;24025;48.138;11.428;2022-12-20T03:23:11;5.47;;;3.35;;
38224;SDS011;24025;48.138;11.428;2022-12-20T03:25:42;5.22;;;2.67;;
38224;SDS011;24025;48.138;11.428;2022-12-20T03:28:12;4.93;;;2.63;;
38224;SDS011;24025;48.138;11.428;2022-12-20T03:30:45;3.78;;;2.75;;
38224;SDS011;24025;48.138;11.428;2022-12-20T03:33:15;5.38;;;3.30;;
38224;SDS011;24025;48.138;11.428;2022-12-20T03:35:46;4.93;;;3.35;;
38224;SDS011;24025;48.138;11.428;2022-12-20T03:38:17;4.80;;;3.10;;
38224;SDS011;24025;48.138;11.428;2022-12-20T03:40:47;5.25;;;2.70;;
38224;SDS011;24025;48.138;11.428;2022-12-20T03:43:18;4.00;;;2.40;;
38224;SDS011;24025;48.138;11.428;2022-12-20T03:45:48;6.60;;;2.60;;
38224;SDS011;24025;48.138;11.428;2022-12-20T03:48:18;5.93;;;2.63;;
38224;SDS011;24025;48.138;11.428;2022-12-20T03:50:49;5.07;;;2.30;;
38224;SDS011;24025;48.138;11.428;2022-12-20T03:53:19;6.30;;;2.58;;
38224;SDS011;24025;48.138;11.428;2022-12-20T03:55:50;3.97;;;1.85;;
38224;SDS011;24025;48.138;11.428;2022-12-20T03:58:20;4.20;;;2.47;;
38224;SDS011;24025;48.138;11.428;2022-12-20T04:00:51;3.75;;;2.20;;
38224;SDS011;24025;48.138;11.428;2022-12-20T04:03:21;3.35;;;2.22;;
38224;SDS011;24025;48.138;11.428;2022-12-20T04:05:51;4.68;;;2.50;;
38224;SDS011;24025;48.138;11.428;2022-12-20T04:08:22;3.60;;;2.13;;
38224;SDS011;24025;48.138;11.428;2022-12-20T04:10:52;6.10;;;2.00;;
38224;SDS011;24025;48.138;11.428;2022-12-20T04:13:45;2.70;;;1.67;;
38224;SDS011;24025;48.138;11.428;2022-12-20T04:16:18;4.70;;;2.47;;
38224;SDS011;24025;48.138;11.428;2022-12-20T04:18:53;4.97;;;2.40;;
38224;SDS011;24025;48.138;11.428;2022-12-20T04:21:25;4.30;;;2.10;;
38224;SDS011;24025;48.138;11.428;2022-12-20T04:23:57;2.50;;;1.67;;
38224;SDS011;24025;48.138;11.428;2022-12-20T04:26:29;2.90;;;2.30;;
38224;SDS011;24025;48.138;11.428;2022-12-20T04:29:00;2.70;;;2.03;;
38224;SDS011;24025;48.138;11.428;2022-12-20T04:31:30;3.03;;;1.83;;
38224;SDS011;24025;48.138;11.428;2022-12-20T04:34:01;3.30;;;1.90;;
38224;SDS011;24025;48.138;11.428;2022-12-20T04:36:32;3.75;;;2.40;;
38224;SDS011;24025;48.138;11.428;2022-12-20T04:39:02;3.20;;;1.58;;
38224;SDS011;24025;48.138;11.428;2022-12-20T04:41:33;3.80;;;2.15;;
38224;SDS011;24025;48.138;11.428;2022-12-20T04:44:03;4.30;;;1.70;;
38224;SDS011;24025;48.138;11.428;2022-12-20T04:46:34;4.22;;;1.52;;
38224;SDS011;24025;48.138;11.428;2022-12-20T04:49:04;3.97;;;2.15;;
38224;SDS011;24025;48.138;11.428;2022-12-20T04:51:35;3.22;;;2.00;;
38224;SDS011;24025;48.138;11.428;2022-12-20T04:54:05;5.78;;;2.33;;
38224;SDS011;24025;48.138;11.428;2022-12-20T04:56:35;4.13;;;1.95;;
38224;SDS011;24025;48.138;11.428;2022-12-20T04:59:06;2.63;;;1.70;;
38224;SDS011;24025;48.138;11.428;2022-12-20T05:01:36;3.47;;;2.45;;
38224;SDS011;24025;48.138;11.428;2022-12-20T05:04:07;3.00;;;1.77;;
38224;SDS011;24025;48.138;11.428;2022-12-20T05:06:37;4.35;;;2.47;;
38224;SDS011;24025;48.138;11.428;2022-12-20T05:09:07;4.40;;;2.05;;
38224;SDS011;24025;48.138;11.428;2022-12-20T05:11:38;3.53;;;2.10;;
38224;SDS011;24025;48.138;11.428;2022-12-20T05:14:08;4.30;;;2.42;;
38224;SDS011;24025;48.138;11.428;2022-12-20T05:16:38;3.75;;;2.10;;
38224;SDS011;24025;48.138;11.428;2022-12-20T05:19:09;6.63;;;2.92;;
38224;SDS011;24025;48.138;11.428;2022-12-20T05:21:39;5.72;;;2.55;;
38224;SDS011;24025;48.138;11.428;2022-12-20T05:24:28;5.75;;;2.63;;
38224;SDS011;24025;48.138;11.428;2022-12-20T05:27:17;4.53;;;2.80;;
38224;SDS011;24025;48.138;11.428;2022-12-20T05:29:48;3.55;;;2.22;;
38224;SDS011;24025;48.138;11.428;2022-12-20T05:32:18;6.38;;;2.15;;
38224;SDS011;24025;48.138;11.428;2022-12-20T05:34:48;4.05;;;2.30;;
38224;SDS011;24025;48.138;11.428;2022-12-20T05:37:19;4.20;;;1.92;;
38224;SDS011;24025;48.138;11.428;2022-12-20T05:39:49;4.88;;;2.30;;
38224;SDS011;24025;48.138;11.428;2022-12-20T05:42:19;3.70;;;2.28;;
38224;SDS011;24025;48.138;11.428;2022-12-20T05:44:50;5.28;;;2.50;;
38224;SDS011;24025;48.138;11.428;2022-12-20T05:47:20;3.17;;;2.05;;
38224;SDS011;24025;48.138;11.428;2022-12-20T05:49:51;5.63;;;3.13;;
38224;SDS011;24025;48.138;11.428;2022-12-20T05:52:21;3.50;;;2.30;;
38224;SDS011;24025;48.138;11.428;2022-12-20T05:54:51;4.70;;;2.42;;
38224;SDS011;24025;48.138;11.428;2022-12-20T05:57:22;3.10;;;2.03;;
38224;SDS011;24025;48.138;11.428;2022-12-20T05:59:52;6.60;;;2.33;;
38224;SDS011;24025;48.138;11.428;2022-12-20T06:02:23;5.07;;;2.50;;
38224;SDS011;24025;48.138;11.428;2022-12-20T06:04:54;5.82;;;2.10;;
38224;SDS011;24025;48.138;11.428;2022-12-20T06:07:25;3.50;;;2.10;;
38224;SDS011;24025;48.138;11.428;2022-12-20T06:09:57;4.97;;;2.35;;
38224;SDS011;24025;48.138;11.428;2022-12-20T06:12:28;5.55;;;2.95;;
38224;SDS011;24025;48.138;11.428;2022-12-20T06:14:58;4.35;;;2.63;;
38224;SDS011;24025;48.138;11.428;2022-12-20T06:17:29;3.67;;;2.22;;
38224;SDS011;24025;48.138;11.428;2022-12-20T06:19:59;5.28;;;2.42;;
38224;SDS011;24025;48.138;11.428;2022-12-20T06:22:29;8.73;;;2.13;;
38224;SDS011;24025;48.138;11.428;2022-12-20T06:25:00;6.13;;;2.35;;
38224;SDS011;24025;48.138;11.428;2022-12-20T06:27:30;5.90;;;2.95;;
38224;SDS011;24025;48.138;11.428;2022-12-20T06:30:02;3.55;;;2.20;;
38224;SDS011;24025;48.138;11.428;2022-12-20T06:32:33;8.05;;;2.92;;
38224;SDS011;24025;48.138;11.428;2022-12-20T06:35:04;4.43;;;2.53;;
38224;SDS011;24025;48.138;11.428;2022-12-20T06:37:35;5.25;;;2.17;;
38224;SDS011;24025;48.138;11.428;2022-12-20T06:40:07;3.53;;;2.35;;
38224;SDS011;24025;48.138;11.428;2022-12-20T06:42:39;4.90;;;1.85;;
38224;SDS011;24025;48.138;11.428;2022-12-20T06:45:09;5.80;;;2.53;;
38224;SDS011;24025;48.138;11.428;2022-12-20T06:47:40;3.92;;;1.58;;
38224;SDS011;24025;48.138;11.428;2022-12-20T06:50:10;4.15;;;2.20;;
38224;SDS011;24025;48.138;11.428;2022-12-20T06:52:41;4.88;;;1.77;;
38224;SDS011;24025;48.138;11.428;2022-12-20T06:55:11;2.63;;;1.95;;
38224;SDS011;24025;48.138;11.428;2022-12-20T06:57:42;4.30;;;2.00;;
38224;SDS011;24025;48.138;11.428;2022-12-20T07:00:15;5.57;;;2.45;;
38224;SDS011;24025;48.138;11.428;2022-12-20T07:02:46;3.63;;;2.30;;
38224;SDS011;24025;48.138;11.428;2022-12-20T07:05:16;3.20;;;2.05;;
38224;SDS011;24025;48.138;11.428;2022-12-20T07:07:47;2.20;;;1.65;;
38224;SDS011;24025;48.138;11.428;2022-12-20T07:10:17;2.13;;;1.50;;
38224;SDS011;24025;48.138;11.428;2022-12-20T07:12:47;5.20;;;1.98;;
38224;SDS011;24025;48.138;11.428;2022-12-20T07:15:18;2.22;;;1.67;;
38224;SDS011;24025;48.138;11.428;2022-12-20T07:17:48;4.35;;;2.15;;
38224;SDS011;24025;48.138;11.428;2022-12-20T07:20:19;4.50;;;1.48;;
38224;SDS011;24025;48.138;11.428;2022-12-20T07:22:49;3.35;;;1.67;;
38224;SDS011;24025;48.138;11.428;2022-12-20T07:25:19;4.38;;;2.17;;
38224;SDS011;24025;48.138;11.428;2022-12-20T07:27:50;3.08;;;2.15;;
38224;SDS011;24025;48.138;11.428;2022-12-20T07:30:20;3.58;;;1.95;;
38224;SDS011;24025;48.138;11.428;2022-12-20T07:32:52;3.75;;;1.92;;
38224;SDS011;24025;48.138;11.428;2022-12-20T07:35:22;7.20;;;2.30;;
38224;SDS011;24025;48.138;11.428;2022-12-20T07:37:53;4.53;;;1.83;;
38224;SDS011;24025;48.138;11.428;2022-12-20T07:40:23;3.75;;;2.25;;
38224;SDS011;24025;48.138;11.428;2022-12-20T07:42:53;9.30;;;2.30;;
38224;SDS011;24025;48.138;11.428;2022-12-20T07:45:24;8.45;;;2.17;;
38224;SDS011;24025;48.138;11.428;2022-12-20T07:47:54;7.35;;;1.65;;
38224;SDS011;24025;48.138;11.428;2022-12-20T07:50:26;3.83;;;2.10;;
38224;SDS011;24025;48.138;11.428;2022-12-20T07:55:29;5.75;;;1.85;;
38224;SDS011;24025;48.138;11.428;2022-12-20T07:58:02;4.20;;;2.08;;
38224;SDS011;24025;48.138;11.428;2022-12-20T08:00:35;3.58;;;1.80;;
38224;SDS011;24025;48.138;11.428;2022-12-20T08:03:17;6.10;;;1.67;;
38224;SDS011;24025;48.138;11.428;2022-12-20T08:05:52;6.43;;;2.10;;
38224;SDS011;24025;48.138;11.428;2022-12-20T08:08:25;4.47;;;1.83;;
38224;SDS011;24025;48.138;11.428;2022-12-20T08:10:55;3.70;;;2.25;;
38224;SDS011;24025;48.138;11.428;2022-12-20T08:13:26;8.15;;;3.78;;
38224;SDS011;24025;48.138;11.428;2022-12-20T08:15:57;5.97;;;3.17;;
38224;SDS011;24025;48.138;11.428;2022-12-20T08:18:27;10.13;;;4.63;;
38224;SDS011;24025;48.138;11.428;2022-12-20T08:20:58;7.20;;;3.67;;
38224;SDS011;24025;48.138;11.428;2022-12-20T08:23:28;4.82;;;3.03;;
38224;SDS011;24025;48.138;11.428;2022-12-20T08:26:01;4.28;;;2.38;;
38224;SDS011;24025;48.138;11.428;2022-12-20T08:28:32;4.43;;;2.35;;
38224;SDS011;24025;48.138;11.428;2022-12-20T08:31:03;5.38;;;3.03;;
38224;SDS011;24025;48.138;11.428;2022-12-20T08:33:36;5.18;;;2.70;;
38224;SDS011;24025;48.138;11.428;2022-12-20T08:36:08;4.00;;;2.58;;
38224;SDS011;24025;48.138;11.428;2022-12-20T08:38:40;6.68;;;2.90;;
38224;SDS011;24025;48.138;11.428;2022-12-20T08:41:12;6.05;;;3.55;;
38224;SDS011;24025;48.138;11.428;2022-12-20T08:43:44;13.63;;;3.53;;
38224;SDS011;24025;48.138;11.428;2022-12-20T08:46:14;6.15;;;3.58;;
38224;SDS011;24025;48.138;11.428;2022-12-20T08:48:44;5.47;;;3.17;;
38224;SDS011;24025;48.138;11.428;2022-12-20T08:51:15;4.95;;;2.97;;
38224;SDS011;24025;48.138;11.428;2022-12-20T08:53:45;7.60;;;3.40;;
38224;SDS011;24025;48.138;11.428;2022-12-20T08:56:16;7.28;;;4.03;;
38224;SDS011;24025;48.138;11.428;2022-12-20T08:58:47;8.30;;;3.22;;
38224;SDS011;24025;48.138;11.428;2022-12-20T09:01:18;7.32;;;3.72;;
38224;SDS011;24025;48.138;11.428;2022-12-20T09:03:50;6.63;;;3.47;;
38224;SDS011;24025;48.138;11.428;2022-12-20T09:06:21;5.28;;;3.28;;
38224;SDS011;24025;48.138;11.428;2022-12-20T09:08:52;5.13;;;2.97;;
38224;SDS011;24025;48.138;11.428;2022-12-20T09:11:25;4.90;;;3.45;;
38224;SDS011;24025;48.138;11.428;2022-12-20T09:13:56;6.10;;;3.50;;
38224;SDS011;24025;48.138;11.428;2022-12-20T09:16:29;3.65;;;2.53;;
38224;SDS011;24025;48.138;11.428;2022-12-20T09:19:01;5.57;;;2.90;;
38224;SDS011;24025;48.138;11.428;2022-12-20T09:21:33;6.28;;;2.70;;
38224;SDS011;24025;48.138;11.428;2022-12-20T09:24:03;5.53;;;2.60;;
38224;SDS011;24025;48.138;11.428;2022-12-20T09:26:35;3.28;;;2.40;;
38224;SDS011;24025;48.138;11.428;2022-12-20T09:29:05;4.13;;;2.25;;
38224;SDS011;24025;48.138;11.428;2022-12-20T09:31:36;5.32;;;2.38;;
38224;SDS011;24025;48.138;11.428;2022-12-20T09:34:07;3.83;;;2.38;;
38224;SDS011;24025;48.138;11.428;2022-12-20T09:36:39;4.93;;;2.60;;
38224;SDS011;24025;48.138;11.428;2022-12-20T09:39:09;4.72;;;2.30;;
38224;SDS011;24025;48.138;11.428;2022-12-20T09:41:40;5.57;;;2.67;;
38224;SDS011;24025;48.138;11.428;2022-12-20T09:44:15;3.30;;;1.90;;
38224;SDS011;24025;48.138;11.428;2022-12-20T09:47:13;3.90;;;1.88;;
38224;SDS011;24025;48.138;11.428;2022-12-20T09:49:48;5.93;;;2.60;;
38224;SDS011;24025;48.138;11.428;2022-12-20T09:58:02;12.88;;;5.13;;
38224;SDS011;24025;48.138;11.428;2022-12-20T10:00:54;10.95;;;4.28;;
38224;SDS011;24025;48.138;11.428;2022-12-20T10:03:26;10.27;;;4.40;;
38224;SDS011;24025;48.138;11.428;2022-12-20T10:06:05;7.47;;;3.70;;
38224;SDS011;24025;48.138;11.428;2022-12-20T10:08:49;11.23;;;4.82;;
38224;SDS011;24025;48.138;11.428;2022-12-20T10:14:18;6.20;;;3.22;;
38224;SDS011;24025;48.138;11.428;2022-12-20T10:16:57;6.65;;;3.00;;
38224;SDS011;24025;48.138;11.428;2022-12-20T10:22:19;4.35;;;2.38;;
38224;SDS011;24025;48.138;11.428;2022-12-20T10:27:49;3.80;;;2.33;;
38224;SDS011;24025;48.138;11.428;2022-12-20T10:30:24;7.70;;;3.08;;
38224;SDS011;24025;48.138;11.428;2022-12-20T10:37:59;7.40;;;3.33;;
38224;SDS011;24025;48.138;11.428;2022-12-20T10:40:38;6.47;;;3.40;;
38224;SDS011;24025;48.138;11.428;2022-12-20T10:43:15;7.45;;;3.95;;
38224;SDS011;24025;48.138;11.428;2022-12-20T10:45:59;5.95;;;3.72;;
38224;SDS011;24025;48.138;11.428;2022-12-20T10:48:34;4.88;;;3.45;;
38224;SDS011;24025;48.138;11.428;2022-12-20T10:53:52;3.80;;;3.20;;
38224;SDS011;24025;48.138;11.428;2022-12-20T10:56:27;6.30;;;3.03;;
38224;SDS011;24025;48.138;11.428;2022-12-20T10:59:00;4.90;;;2.97;;
38224;SDS011;24025;48.138;11.428;2022-12-20T11:01:34;4.72;;;2.67;;
38224;SDS011;24025;48.138;11.428;2022-12-20T11:04:07;5.90;;;2.50;;
38224;SDS011;24025;48.138;11.428;2022-12-20T11:06:53;6.78;;;3.15;;
38224;SDS011;24025;48.138;11.428;2022-12-20T11:09:31;5.93;;;3.20;;
38224;SDS011;24025;48.138;11.428;2022-12-20T11:12:13;6.65;;;2.25;;
38224;SDS011;24025;48.138;11.428;2022-12-20T11:14:45;6.95;;;3.10;;
38224;SDS011;24025;48.138;11.428;2022-12-20T11:17:27;6.70;;;2.75;;
38224;SDS011;24025;48.138;11.428;2022-12-20T11:32:18;7.57;;;3.85;;
38224;SDS011;24025;48.138;11.428;2022-12-20T11:35:06;6.25;;;3.65;;
38224;SDS011;24025;48.138;11.428;2022-12-20T11:40:29;8.98;;;4.22;;
38224;SDS011;24025;48.138;11.428;2022-12-20T11:49:13;7.75;;;3.92;;
38224;SDS011;24025;48.138;11.428;2022-12-20T11:52:09;9.75;;;4.90;;
38224;SDS011;24025;48.138;11.428;2022-12-20T11:54:48;10.30;;;3.92;;
38224;SDS011;24025;48.138;11.428;2022-12-20T11:57:29;7.57;;;3.92;;
38224;SDS011;24025;48.138;11.428;2022-12-20T12:00:14;4.88;;;3.13;;
38224;SDS011;24025;48.138;11.428;2022-12-20T12:02:47;6.75;;;3.20;;
38224;SDS011;24025;48.138;11.428;2022-12-20T12:05:43;6.13;;;3.95;;
38224;SDS011;24025;48.138;11.428;2022-12-20T12:08:18;8.90;;;4.00;;
38224;SDS011;24025;48.138;11.428;2022-12-20T12:10:57;7.97;;;3.33;;
38224;SDS011;24025;48.138;11.428;2022-12-20T12:13:34;5.65;;;3.30;;
38224;SDS011;24025;48.138;11.428;2022-12-20T12:16:10;5.28;;;3.15;;
38224;SDS011;24025;48.138;11.428;2022-12-20T12:18:45;5.97;;;3.03;;
38224;SDS011;24025;48.138;11.428;2022-12-20T12:21:22;7.25;;;3.13;;
38224;SDS011;24025;48.138;11.428;2022-12-20T12:24:24;6.22;;;3.20;;
38224;SDS011;24025;48.138;11.428;2022-12-20T12:27:00;5.45;;;3.10;;
38224;SDS011;24025;48.138;11.428;2022-12-20T12:29:32;8.30;;;3.50;;
38224;SDS011;24025;48.138;11.428;2022-12-20T12:32:07;8.18;;;3.80;;
38224;SDS011;24025;48.138;11.428;2022-12-20T12:46:31;5.45;;;3.35;;
38224;SDS011;24025;48.138;11.428;2022-12-20T12:49:05;7.57;;;3.45;;
38224;SDS011;24025;48.138;11.428;2022-12-20T12:51:51;6.13;;;3.88;;
38224;SDS011;24025;48.138;11.428;2022-12-20T12:54:29;7.57;;;4.18;;
38224;SDS011;24025;48.138;11.428;2022-12-20T13:07:49;17.35;;;6.22;;
38224;SDS011;24025;48.138;11.428;2022-12-20T13:12:58;14.02;;;7.00;;
38224;SDS011;24025;48.138;11.428;2022-12-20T13:20:38;14.73;;;8.10;;
38224;SDS011;24025;48.138;11.428;2022-12-20T13:25:48;20.92;;;9.18;;
38224;SDS011;24025;48.138;11.428;2022-12-20T13:33:43;17.95;;;9.27;;
38224;SDS011;24025;48.138;11.428;2022-12-20T13:41:52;25.13;;;11.95;;
38224;SDS011;24025;48.138;11.428;2022-12-20T13:45:04;21.83;;;9.93;;
38224;SDS011;24025;48.138;11.428;2022-12-20T13:47:44;23.23;;;10.77;;
38224;SDS011;24025;48.138;11.428;2022-12-20T13:50:26;20.08;;;10.23;;
38224;SDS011;24025;48.138;11.428;2022-12-20T13:53:00;23.30;;;10.65;;
38224;SDS011;24025;48.138;11.428;2022-12-20T13:55:33;15.38;;;9.43;;
38224;SDS011;24025;48.138;11.428;2022-12-20T13:58:17;24.55;;;11.68;;
38224;SDS011;24025;48.138;11.428;2022-12-20T14:00:51;20.00;;;10.65;;
38224;SDS011;24025;48.138;11.428;2022-12-20T14:03:24;15.93;;;9.77;;
38224;SDS011;24025;48.138;11.428;2022-12-20T14:05:58;19.17;;;10.63;;
38224;SDS011;24025;48.138;11.428;2022-12-20T14:08:32;19.20;;;9.95;;
38224;SDS011;24025;48.138;11.428;2022-12-20T14:11:15;25.33;;;11.38;;
38224;SDS011;24025;48.138;11.428;2022-12-20T14:16:31;25.08;;;11.68;;
38224;SDS011;24025;48.138;11.428;2022-12-20T14:19:05;25.05;;;12.40;;
38224;SDS011;24025;48.138;11.428;2022-12-20T14:21:42;23.42;;;13.45;;
38224;SDS011;24025;48.138;11.428;2022-12-20T14:24:16;25.55;;;14.00;;
38224;SDS011;24025;48.138;11.428;2022-12-20T14:26:50;27.00;;;13.68;;
38224;SDS011;24025;48.138;11.428;2022-12-20T14:29:25;24.98;;;13.68;;
38224;SDS011;24025;48.138;11.428;2022-12-20T14:31:58;27.90;;;13.98;;
38224;SDS011;24025;48.138;11.428;2022-12-20T14:34:29;31.48;;;15.75;;
38224;SDS011;24025;48.138;11.428;2022-12-20T14:39:54;28.80;;;14.55;;
38224;SDS011;24025;48.138;11.428;2022-12-20T14:42:41;25.52;;;13.95;;
38224;SDS011;24025;48.138;11.428;2022-12-20T14:50:36;29.70;;;13.15;;
38224;SDS011;24025;48.138;11.428;2022-12-20T14:53:15;34.20;;;14.93;;
38224;SDS011;24025;48.138;11.428;2022-12-20T14:55:49;31.07;;;14.50;;
38224;SDS011;24025;48.138;11.428;2022-12-20T14:58:24;35.15;;;15.10;;
38224;SDS011;24025;48.138;11.428;2022-12-20T15:01:18;34.08;;;14.57;;
38224;SDS011;24025;48.138;11.428;2022-12-20T15:06:36;39.47;;;16.02;;
38224;SDS011;24025;48.138;11.428;2022-12-20T15:09:12;38.72;;;15.00;;
38224;SDS011;24025;48.138;11.428;2022-12-20T15:11:43;33.70;;;16.73;;
38224;SDS011;24025;48.138;11.428;2022-12-20T15:14:20;25.75;;;14.88;;
38224;SDS011;24025;48.138;11.428;2022-12-20T15:16:51;27.88;;;15.05;;
38224;SDS011;24025;48.138;11.428;2022-12-20T15:19:22;32.63;;;17.45;;
38224;SDS011;24025;48.138;11.428;2022-12-20T15:21:52;37.10;;;16.55;;
38224;SDS011;24025;48.138;11.428;2022-12-20T15:24:24;33.05;;;16.42;;
38224;SDS011;24025;48.138;11.428;2022-12-20T15:26:56;31.25;;;16.08;;
38224;SDS011;24025;48.138;11.428;2022-12-20T15:29:27;32.10;;;15.43;;
38224;SDS011;24025;48.138;11.428;2022-12-20T15:32:05;27.45;;;15.30;;
38224;SDS011;24025;48.138;11.428;2022-12-20T15:34:44;30.13;;;14.73;;
38224;SDS011;24025;48.138;11.428;2022-12-20T15:37:15;34.45;;;16.05;;
38224;SDS011;24025;48.138;11.428;2022-12-20T15:39:45;28.38;;;14.93;;
38224;SDS011;24025;48.138;11.428;2022-12-20T15:42:16;37.38;;;15.27;;
38224;SDS011;24025;48.138;11.428;2022-12-20T15:44:49;30.60;;;16.23;;
38224;SDS011;24025;48.138;11.428;2022-12-20T15:47:19;32.17;;;15.43;;
38224;SDS011;24025;48.138;11.428;2022-12-20T15:49:50;29.10;;;15.68;;
38224;SDS011;24025;48.138;11.428;2022-12-20T15:52:21;31.17;;;16.60;;
38224;SDS011;24025;48.138;11.428;2022-12-20T15:54:52;28.80;;;15.30;;
38224;SDS011;24025;48.138;11.428;2022-12-20T15:57:23;30.60;;;16.08;;
38224;SDS011;24025;48.138;11.428;2022-12-20T15:59:53;28.42;;;14.20;;
38224;SDS011;24025;48.138;11.428;2022-12-20T16:02:26;32.67;;;15.27;;
38224;SDS011;24025;48.138;11.428;2022-12-20T16:04:58;26.48;;;15.88;;
38224;SDS011;24025;48.138;11.428;2022-12-20T16:07:28;34.33;;;16.83;;
38224;SDS011;24025;48.138;11.428;2022-12-20T16:09:59;34.42;;;16.83;;
38224;SDS011;24025;48.138;11.428;2022-12-20T16:12:31;32.33;;;16.67;;
38224;SDS011;24025;48.138;11.428;2022-12-20T16:15:04;28.25;;;15.63;;
38224;SDS011;24025;48.138;11.428;2022-12-20T16:17:37;29.70;;;16.38;;
38224;SDS011;24025;48.138;11.428;2022-12-20T16:20:08;34.55;;;17.23;;
38224;SDS011;24025;48.138;11.428;2022-12-20T16:22:38;36.30;;;18.13;;
38224;SDS011;24025;48.138;11.428;2022-12-20T16:25:31;42.13;;;20.23;;
38224;SDS011;24025;48.138;11.428;2022-12-20T16:28:01;37.55;;;18.42;;
38224;SDS011;24025;48.138;11.428;2022-12-20T16:30:32;34.55;;;17.83;;
38224;SDS011;24025;48.138;11.428;2022-12-20T16:33:03;34.70;;;17.17;;
38224;SDS011;24025;48.138;11.428;2022-12-20T16:35:35;33.92;;;18.25;;
38224;SDS011;24025;48.138;11.428;2022-12-20T16:38:08;41.53;;;18.10;;
38224;SDS011;24025;48.138;11.428;2022-12-20T16:40:38;44.30;;;20.45;;
38224;SDS011;24025;48.138;11.428;2022-12-20T16:43:12;38.33;;;17.80;;
38224;SDS011;24025;48.138;11.428;2022-12-20T16:45:44;33.90;;;18.25;;
38224;SDS011;24025;48.138;11.428;2022-12-20T16:48:14;32.67;;;18.67;;
38224;SDS011;24025;48.138;11.428;2022-12-20T16:50:44;30.45;;;17.48;;
38224;SDS011;24025;48.138;11.428;2022-12-20T16:53:15;35.55;;;18.05;;
38224;SDS011;24025;48.138;11.428;2022-12-20T16:55:45;34.53;;;17.10;;
38224;SDS011;24025;48.138;11.428;2022-12-20T16:58:15;27.83;;;15.65;;